Time;durP1;ratioP1;P1;durP2;ratioP2;P2;SDS_P1;SDS_P2;PMS_P1;PMS_P2;Temp;Humidity;BMP_temperature;BMP_pressure;BME280_temperature;BME280_humidity;BME280_pressure;Samples;Min_cycle;Max_cycle;Signal;HPM_P1;HPM_P2
2021/01/28 00:01:59;;;;;;;6.60;5.03;;;;;;;;;;4993019;28;20053;-70
2021/01/28 00:04:25;;;;;;;8.05;5.32;;;;;;;;;;4992181;28;20046;-70
2021/01/28 00:06:51;;;;;;;7.25;5.70;;;;;;;;;;4991107;28;20496;-69
2021/01/28 00:09:17;;;;;;;7.60;4.82;;;;;;;;;;5005707;28;20061;-70
2021/01/28 00:11:44;;;;;;;5.50;4.43;;;;;;;;;;5010625;28;20061;-70
2021/01/28 00:14:10;;;;;;;9.32;5.03;;;;;;;;;;4995266;28;20045;-70
2021/01/28 00:16:36;;;;;;;7.70;5.68;;;;;;;;;;5011816;28;20046;-69
2021/01/28 00:19:03;;;;;;;5.97;4.93;;;;;;;;;;5012650;28;20045;-70
2021/01/28 00:21:30;;;;;;;7.65;4.93;;;;;;;;;;5011096;28;20077;-70
2021/01/28 00:23:56;;;;;;;5.80;4.78;;;;;;;;;;5012521;28;20101;-70
2021/01/28 00:26:22;;;;;;;6.68;5.03;;;;;;;;;;5011810;28;20045;-70
2021/01/28 00:28:48;;;;;;;7.75;4.80;;;;;;;;;;5019904;28;20504;-70
2021/01/28 00:31:14;;;;;;;6.72;5.35;;;;;;;;;;4998036;28;20045;-70
2021/01/28 00:33:40;;;;;;;8.00;5.72;;;;;;;;;;5014436;28;20053;-70
2021/01/28 00:36:07;;;;;;;7.57;5.35;;;;;;;;;;5013841;28;20103;-69
2021/01/28 00:38:39;;;;;;;8.82;6.07;;;;;;;;;;5030367;28;20046;-70
2021/01/28 00:41:13;;;;;;;9.73;6.18;;;;;;;;;;5030668;28;20060;-70
2021/01/28 00:43:40;;;;;;;8.95;5.63;;;;;;;;;;5030485;28;20053;-70
2021/01/28 00:46:06;;;;;;;7.63;5.90;;;;;;;;;;5031022;28;20057;-70
2021/01/28 00:48:33;;;;;;;6.22;5.00;;;;;;;;;;5005192;28;20046;-70
2021/01/28 00:51:01;;;;;;;7.40;5.03;;;;;;;;;;4990968;28;20050;-70
2021/01/28 00:53:27;;;;;;;6.47;4.90;;;;;;;;;;4991268;28;20051;-70
2021/01/28 00:55:53;;;;;;;7.40;4.47;;;;;;;;;;4990408;28;20061;-70
2021/01/28 00:58:21;;;;;;;7.70;5.25;;;;;;;;;;4999568;28;20045;-70
2021/01/28 01:00:47;;;;;;;6.63;4.97;;;;;;;;;;5031695;28;20072;-70
2021/01/28 01:03:16;;;;;;;8.20;4.82;;;;;;;;;;5014197;28;20053;-69
2021/01/28 01:05:43;;;;;;;6.38;4.82;;;;;;;;;;5013632;28;20077;-70
2021/01/28 01:08:19;;;;;;;7.47;4.95;;;;;;;;;;5013954;28;20496;-70
2021/01/28 01:10:49;;;;;;;6.03;4.88;;;;;;;;;;5014129;28;20046;-71
2021/01/28 01:13:21;;;;;;;6.38;4.68;;;;;;;;;;5014426;28;20416;-69
2021/01/28 01:15:48;;;;;;;7.80;4.75;;;;;;;;;;5013480;28;20045;-70
2021/01/28 01:18:16;;;;;;;7.07;4.82;;;;;;;;;;5030206;28;20504;-70
2021/01/28 01:20:43;;;;;;;7.65;5.00;;;;;;;;;;5030101;28;20527;-70
2021/01/28 01:23:09;;;;;;;6.35;4.80;;;;;;;;;;5030320;28;20128;-70
2021/01/28 01:25:36;;;;;;;5.50;4.47;;;;;;;;;;5032903;28;20132;-70
2021/01/28 01:28:03;;;;;;;6.15;4.72;;;;;;;;;;5016004;28;20416;-69
2021/01/28 01:30:29;;;;;;;6.82;4.80;;;;;;;;;;5033766;28;20068;-70
2021/01/28 01:32:56;;;;;;;6.35;4.60;;;;;;;;;;5034099;28;20357;-70
2021/01/28 01:35:23;;;;;;;7.93;4.80;;;;;;;;;;5034764;28;20083;-70
2021/01/28 01:37:53;;;;;;;6.07;4.40;;;;;;;;;;5035236;28;20396;-70
2021/01/28 01:40:22;;;;;;;6.40;4.70;;;;;;;;;;5034007;28;20522;-70
2021/01/28 01:42:49;;;;;;;6.40;4.47;;;;;;;;;;5035459;28;20054;-69
2021/01/28 01:45:18;;;;;;;5.47;4.63;;;;;;;;;;5017208;28;20140;-70
2021/01/28 01:47:46;;;;;;;5.55;4.32;;;;;;;;;;5011058;28;20054;-70
2021/01/28 01:50:30;;;;;;;5.78;4.22;;;;;;;;;;4994446;28;20050;-70
2021/01/28 01:52:57;;;;;;;7.25;4.70;;;;;;;;;;4979014;28;20047;-70
2021/01/28 01:55:23;;;;;;;7.35;4.32;;;;;;;;;;4977730;28;20112;-70
2021/01/28 01:57:49;;;;;;;6.15;4.43;;;;;;;;;;4994204;28;20054;-70
2021/01/28 02:00:17;;;;;;;5.43;4.28;;;;;;;;;;4994261;28;20055;-71
2021/01/28 02:02:46;;;;;;;5.68;3.80;;;;;;;;;;4994036;28;20472;-70
2021/01/28 02:05:15;;;;;;;6.07;3.35;;;;;;;;;;4993914;28;20129;-70
2021/01/28 02:07:41;;;;;;;7.07;3.97;;;;;;;;;;4995086;28;20555;-69
2021/01/28 02:10:10;;;;;;;4.18;3.78;;;;;;;;;;4994119;28;20047;-69
2021/01/28 02:12:36;;;;;;;5.32;3.75;;;;;;;;;;4995010;28;20085;-70
2021/01/28 02:15:04;;;;;;;6.28;4.13;;;;;;;;;;4993946;28;20450;-70
2021/01/28 02:17:32;;;;;;;5.47;4.00;;;;;;;;;;4977578;28;20046;-70
2021/01/28 02:20:30;;;;;;;5.13;4.07;;;;;;;;;;4978021;28;20061;-70
2021/01/28 02:22:56;;;;;;;4.95;3.85;;;;;;;;;;5002342;28;20528;-70
2021/01/28 02:25:31;;;;;;;5.90;4.22;;;;;;;;;;5014046;28;20132;-70
2021/01/28 02:28:00;;;;;;;5.38;3.97;;;;;;;;;;5013500;28;20120;-70
2021/01/28 02:30:28;;;;;;;5.05;3.30;;;;;;;;;;4997182;28;20042;-70
2021/01/28 02:32:54;;;;;;;5.13;3.47;;;;;;;;;;5013150;28;20088;-70
2021/01/28 02:35:23;;;;;;;5.82;3.35;;;;;;;;;;4995932;28;20123;-70
2021/01/28 02:37:49;;;;;;;7.45;3.92;;;;;;;;;;5013126;28;20468;-70
2021/01/28 02:40:17;;;;;;;3.05;2.72;;;;;;;;;;4997092;28;20107;-69
2021/01/28 02:42:43;;;;;;;5.93;3.58;;;;;;;;;;5012933;28;20128;-70
2021/01/28 02:45:11;;;;;;;4.00;2.80;;;;;;;;;;4996555;28;20046;-70
2021/01/28 02:47:37;;;;;;;4.70;2.67;;;;;;;;;;4980399;28;20118;-70
2021/01/28 02:50:03;;;;;;;4.90;2.85;;;;;;;;;;5014119;28;20046;-70
2021/01/28 02:52:29;;;;;;;3.58;3.20;;;;;;;;;;5012728;28;20123;-70
2021/01/28 02:54:55;;;;;;;3.75;2.83;;;;;;;;;;4980502;28;20053;-70
2021/01/28 02:57:21;;;;;;;4.70;2.95;;;;;;;;;;5013443;28;20100;-70
2021/01/28 02:59:47;;;;;;;5.70;2.95;;;;;;;;;;5013799;28;20108;-71
2021/01/28 03:02:16;;;;;;;4.72;2.88;;;;;;;;;;5013893;28;20460;-70
2021/01/28 03:04:43;;;;;;;2.85;2.55;;;;;;;;;;4996754;28;20056;-70
2021/01/28 03:07:11;;;;;;;5.03;3.65;;;;;;;;;;5012059;28;20057;-70
2021/01/28 03:09:37;;;;;;;6.03;3.50;;;;;;;;;;5012584;28;20077;-70
2021/01/28 03:12:05;;;;;;;4.43;3.13;;;;;;;;;;4996147;28;20046;-70
2021/01/28 03:14:31;;;;;;;4.80;3.03;;;;;;;;;;4996469;28;20050;-70
2021/01/28 03:16:57;;;;;;;3.03;2.60;;;;;;;;;;5011655;28;20101;-70
2021/01/28 03:19:24;;;;;;;3.90;2.72;;;;;;;;;;5013748;28;20056;-71
2021/01/28 03:21:50;;;;;;;3.13;2.50;;;;;;;;;;5009144;28;20493;-70
2021/01/28 03:24:16;;;;;;;3.00;2.30;;;;;;;;;;4994004;28;20100;-70
2021/01/28 03:26:42;;;;;;;2.92;2.33;;;;;;;;;;4992060;28;20136;-70
2021/01/28 03:29:11;;;;;;;2.80;2.45;;;;;;;;;;4992607;28;20109;-70
2021/01/28 03:31:40;;;;;;;3.35;2.45;;;;;;;;;;4976569;28;20058;-70
2021/01/28 03:34:06;;;;;;;4.07;2.55;;;;;;;;;;4976476;28;20544;-70
2021/01/28 03:36:32;;;;;;;2.60;2.33;;;;;;;;;;4991747;28;20428;-70
2021/01/28 03:38:59;;;;;;;4.38;2.40;;;;;;;;;;4976459;28;20124;-70
2021/01/28 03:41:26;;;;;;;3.60;2.55;;;;;;;;;;4976519;28;20116;-70
2021/01/28 03:43:52;;;;;;;2.80;2.40;;;;;;;;;;4976108;28;20085;-70
2021/01/28 03:46:18;;;;;;;3.85;2.63;;;;;;;;;;4991068;28;20105;-70
2021/01/28 03:48:44;;;;;;;3.35;2.88;;;;;;;;;;4975952;28;20046;-69
2021/01/28 03:51:10;;;;;;;3.15;2.20;;;;;;;;;;4992992;28;20047;-70
2021/01/28 03:53:36;;;;;;;3.45;2.28;;;;;;;;;;5057694;22;20049;-69
2021/01/28 03:56:02;;;;;;;3.63;2.42;;;;;;;;;;5051924;28;20052;-69
2021/01/28 03:58:29;;;;;;;3.17;2.38;;;;;;;;;;5052508;28;20114;-70
2021/01/28 04:00:55;;;;;;;3.80;2.35;;;;;;;;;;5052296;28;20044;-69
2021/01/28 04:03:21;;;;;;;2.63;1.92;;;;;;;;;;5052390;28;20053;-70
2021/01/28 04:05:47;;;;;;;3.08;2.33;;;;;;;;;;5051671;28;20079;-70
2021/01/28 04:08:13;;;;;;;3.08;2.25;;;;;;;;;;5052403;28;20079;-69
2021/01/28 04:10:39;;;;;;;3.08;2.13;;;;;;;;;;5032787;28;20076;-69
2021/01/28 04:13:06;;;;;;;2.80;2.30;;;;;;;;;;5032295;28;20107;-70
2021/01/28 04:15:33;;;;;;;2.17;1.85;;;;;;;;;;5031524;28;20045;-70
2021/01/28 04:17:59;;;;;;;3.28;2.50;;;;;;;;;;5032621;28;20107;-69
2021/01/28 04:20:29;;;;;;;2.65;2.20;;;;;;;;;;5032331;28;20052;-69
2021/01/28 04:22:55;;;;;;;2.70;2.28;;;;;;;;;;5031992;28;20111;-70
2021/01/28 04:25:21;;;;;;;3.10;2.40;;;;;;;;;;5031557;28;20496;-69
2021/01/28 04:27:47;;;;;;;3.05;2.60;;;;;;;;;;5032008;28;20107;-69
2021/01/28 04:30:17;;;;;;;3.63;2.60;;;;;;;;;;5032107;28;20092;-70
2021/01/28 04:32:43;;;;;;;3.33;2.38;;;;;;;;;;5031896;28;20050;-70
2021/01/28 04:35:10;;;;;;;3.65;2.10;;;;;;;;;;5031683;28;20393;-69
2021/01/28 04:37:37;;;;;;;2.90;2.40;;;;;;;;;;5031580;28;20064;-69
2021/01/28 04:40:38;;;;;;;4.53;2.90;;;;;;;;;;5045794;28;20495;-69
2021/01/28 04:43:24;;;;;;;4.15;2.72;;;;;;;;;;5051666;28;20052;-70
2021/01/28 04:45:53;;;;;;;7.20;3.10;;;;;;;;;;5049635;28;20091;-70
2021/01/28 04:48:19;;;;;;;4.13;2.90;;;;;;;;;;5034199;28;20103;-70
2021/01/28 04:50:45;;;;;;;4.95;2.80;;;;;;;;;;5051450;28;20071;-70
2021/01/28 04:53:16;;;;;;;3.08;2.42;;;;;;;;;;5050342;28;20077;-70
2021/01/28 04:55:47;;;;;;;4.63;3.00;;;;;;;;;;5019462;28;20076;-69
2021/01/28 04:58:14;;;;;;;4.00;2.70;;;;;;;;;;5031556;28;20127;-70
2021/01/28 05:00:40;;;;;;;4.38;3.03;;;;;;;;;;5031492;28;20042;-70
2021/01/28 05:03:25;;;;;;;4.45;2.78;;;;;;;;;;5031452;28;20053;-69
2021/01/28 05:05:53;;;;;;;5.10;2.95;;;;;;;;;;5015555;28;20057;-69
2021/01/28 05:08:19;;;;;;;4.40;3.10;;;;;;;;;;5030141;28;20496;-70
2021/01/28 05:10:48;;;;;;;4.80;3.28;;;;;;;;;;5026897;28;20464;-71
2021/01/28 05:13:33;;;;;;;6.38;4.20;;;;;;;;;;5011734;28;20060;-71
2021/01/28 05:16:36;;;;;;;7.03;4.50;;;;;;;;;;5009790;28;20061;-71
2021/01/28 05:19:06;;;;;;;8.23;4.43;;;;;;;;;;4974909;28;20112;-71
2021/01/28 05:21:39;;;;;;;6.28;3.00;;;;;;;;;;5024280;28;20049;-71
2021/01/28 05:24:13;;;;;;;4.10;2.92;;;;;;;;;;5030221;28;20049;-71
2021/01/28 05:26:41;;;;;;;3.17;2.72;;;;;;;;;;5013804;28;20103;-71
2021/01/28 05:29:29;;;;;;;4.30;3.53;;;;;;;;;;5031060;28;20500;-71
2021/01/28 05:31:58;;;;;;;4.57;3.25;;;;;;;;;;5030956;28;20112;-71
2021/01/28 05:34:29;;;;;;;4.20;2.83;;;;;;;;;;5029612;28;20077;-71
2021/01/28 05:37:06;;;;;;;4.03;2.90;;;;;;;;;;5016570;28;20496;-71
2021/01/28 05:39:36;;;;;;;4.75;3.63;;;;;;;;;;5011626;28;20096;-71
2021/01/28 05:42:08;;;;;;;5.30;3.45;;;;;;;;;;5028131;28;20111;-71
2021/01/28 05:44:37;;;;;;;4.88;2.92;;;;;;;;;;5012751;28;20127;-71
2021/01/28 05:47:04;;;;;;;5.00;3.08;;;;;;;;;;5027899;28;20470;-71
2021/01/28 05:49:31;;;;;;;3.67;2.88;;;;;;;;;;5030972;28;20522;-71
2021/01/28 05:51:57;;;;;;;4.68;3.33;;;;;;;;;;5029415;28;20076;-71
2021/01/28 05:54:25;;;;;;;3.85;2.95;;;;;;;;;;5013414;28;20107;-71
2021/01/28 05:57:02;;;;;;;3.47;2.83;;;;;;;;;;5030372;28;20119;-71
2021/01/28 05:59:43;;;;;;;5.53;3.25;;;;;;;;;;5035813;28;20486;-68
2021/01/28 06:02:32;;;;;;;5.00;3.40;;;;;;;;;;5029794;28;20112;-68
2021/01/28 06:05:35;;;;;;;6.90;3.90;;;;;;;;;;5030076;28;20060;-69
2021/01/28 06:08:24;;;;;;;4.83;3.57;;;;;;;;;;5031184;28;20180;-68
2021/01/28 06:11:09;;;;;;;3.80;3.40;;;;;;;;;;5032770;28;20046;-69
2021/01/28 06:14:07;;;;;;;6.93;3.35;;;;;;;;;;5034212;28;20068;-68
2021/01/28 06:16:59;;;;;;;6.18;4.15;;;;;;;;;;5033756;28;20108;-68
2021/01/28 06:19:28;;;;;;;6.28;3.67;;;;;;;;;;5029201;28;20146;-68
2021/01/28 06:21:57;;;;;;;5.22;3.80;;;;;;;;;;5048581;28;20222;-68
2021/01/28 06:24:31;;;;;;;6.35;4.22;;;;;;;;;;5054098;28;20488;-68
2021/01/28 06:27:26;;;;;;;4.75;3.67;;;;;;;;;;5052442;28;20099;-68
2021/01/28 06:30:27;;;;;;;5.47;4.07;;;;;;;;;;5053018;28;20049;-68
2021/01/28 06:33:31;;;;;;;6.57;4.53;;;;;;;;;;5027812;28;20084;-69
2021/01/28 06:36:04;;;;;;;4.82;3.80;;;;;;;;;;5033311;28;20050;-68
2021/01/28 06:38:33;;;;;;;;;;;;;;;;;;5034590;28;20102;-69
2021/01/28 06:41:03;;;;;;;6.43;4.10;;;;;;;;;;5027300;28;19976;-69
2021/01/28 06:43:56;;;;;;;6.25;4.50;;;;;;;;;;5013030;28;20054;-68
2021/01/28 06:46:47;;;;;;;7.75;4.60;;;;;;;;;;5018588;28;20493;-68
2021/01/28 06:49:13;;;;;;;6.85;4.72;;;;;;;;;;5018614;28;20463;-68
2021/01/28 06:52:02;;;;;;;8.52;4.40;;;;;;;;;;5022267;28;20046;-68
2021/01/28 06:54:52;;;;;;;7.85;4.57;;;;;;;;;;4993456;28;20100;-68
2021/01/28 06:57:23;;;;;;;6.57;4.82;;;;;;;;;;5011396;28;20041;-67
2021/01/28 07:00:03;;;;;;;7.60;4.90;;;;;;;;;;5010970;28;20054;-67
2021/01/28 07:02:44;;;;;;;8.25;4.30;;;;;;;;;;5016296;28;20050;-67
2021/01/28 07:05:13;;;;;;;7.47;5.32;;;;;;;;;;5016393;28;20062;-67
2021/01/28 07:07:52;;;;;;;8.07;5.43;;;;;;;;;;5017544;28;20050;-66
2021/01/28 07:10:29;;;;;;;11.38;5.57;;;;;;;;;;5016767;28;20147;-67
2021/01/28 07:12:55;;;;;;;8.88;5.13;;;;;;;;;;5014927;28;20046;-67
2021/01/28 07:15:21;;;;;;;10.32;5.30;;;;;;;;;;5015159;28;20058;-67
2021/01/28 07:17:56;;;;;;;7.68;5.30;;;;;;;;;;5004133;28;20103;-68
2021/01/28 07:20:32;;;;;;;12.25;5.72;;;;;;;;;;5015397;28;20572;-66
2021/01/28 07:23:24;;;;;;;8.50;5.22;;;;;;;;;;5014609;28;20084;-67
2021/01/28 07:26:05;;;;;;;10.75;5.03;;;;;;;;;;5016926;28;20482;-67
2021/01/28 07:28:34;;;;;;;6.80;4.70;;;;;;;;;;5022129;28;20041;-67
2021/01/28 07:31:06;;;;;;;7.05;4.43;;;;;;;;;;5014400;28;20045;-67
2021/01/28 07:33:46;;;;;;;7.32;4.53;;;;;;;;;;5019594;28;20063;-67
2021/01/28 07:36:12;;;;;;;8.13;4.55;;;;;;;;;;5029157;28;20049;-67
2021/01/28 07:38:44;;;;;;;6.20;3.97;;;;;;;;;;5030372;28;20512;-66
2021/01/28 07:41:14;;;;;;;6.60;4.20;;;;;;;;;;5031016;28;20084;-66
2021/01/28 07:43:49;;;;;;;5.47;4.20;;;;;;;;;;5030729;28;20495;-67
2021/01/28 07:46:28;;;;;;;5.50;4.32;;;;;;;;;;5028911;28;20066;-67
2021/01/28 07:49:18;;;;;;;4.95;3.72;;;;;;;;;;5029478;28;20081;-67
2021/01/28 07:52:10;;;;;;;5.88;3.85;;;;;;;;;;5030094;28;20516;-67
2021/01/28 07:54:45;;;;;;;5.75;4.35;;;;;;;;;;5025160;28;20133;-70
2021/01/28 07:57:12;;;;;;;6.72;4.80;;;;;;;;;;5008240;28;20557;-68
2021/01/28 08:00:05;;;;;;;10.07;5.30;;;;;;;;;;5016109;28;20077;-68
2021/01/28 08:02:36;;;;;;;7.47;4.38;;;;;;;;;;5016914;28;20050;-67
2021/01/28 08:05:05;;;;;;;8.00;4.40;;;;;;;;;;5011275;28;20073;-67
2021/01/28 08:07:34;;;;;;;5.88;4.50;;;;;;;;;;5016002;28;20052;-67
2021/01/28 08:10:04;;;;;;;7.15;5.03;;;;;;;;;;5015956;28;20072;-67
2021/01/28 08:12:34;;;;;;;9.65;4.78;;;;;;;;;;5018454;28;20053;-67
2021/01/28 08:15:00;;;;;;;8.77;5.15;;;;;;;;;;5018286;28;20053;-71
2021/01/28 08:17:32;;;;;;;8.05;5.10;;;;;;;;;;5023972;28;20053;-71
2021/01/28 08:20:17;;;;;;;8.27;4.83;;;;;;;;;;5025761;28;20479;-72
2021/01/28 08:23:01;;;;;;;5.85;4.43;;;;;;;;;;5015252;28;20460;-71
2021/01/28 08:25:31;;;;;;;7.40;4.88;;;;;;;;;;5016655;28;20053;-71
2021/01/28 08:28:16;;;;;;;7.85;5.03;;;;;;;;;;5017074;28;20055;-72
2021/01/28 08:30:43;;;;;;;6.57;4.30;;;;;;;;;;5017040;28;20045;-69
2021/01/28 08:33:22;;;;;;;7.22;4.28;;;;;;;;;;5014111;28;20057;-71
2021/01/28 08:35:51;;;;;;;7.55;4.45;;;;;;;;;;4990909;28;20537;-70
2021/01/28 08:38:28;;;;;;;9.60;5.82;;;;;;;;;;4995603;28;20089;-73
2021/01/28 08:41:13;;;;;;;8.05;5.28;;;;;;;;;;4994706;28;20058;-69
2021/01/28 08:43:40;;;;;;;8.48;4.82;;;;;;;;;;4998368;28;20056;-69
2021/01/28 08:46:27;;;;;;;8.65;5.07;;;;;;;;;;4994841;28;20047;-73
2021/01/28 08:49:14;;;;;;;9.10;5.35;;;;;;;;;;4995285;28;20532;-73
2021/01/28 08:51:42;;;;;;;5.93;4.40;;;;;;;;;;4990972;28;20073;-73
2021/01/28 08:54:25;;;;;;;8.52;5.05;;;;;;;;;;4989960;28;20503;-74
2021/01/28 08:56:56;;;;;;;7.05;4.63;;;;;;;;;;4981843;28;20177;-73
2021/01/28 08:59:38;;;;;;;6.38;3.95;;;;;;;;;;4978052;28;20624;-70
2021/01/28 09:02:05;;;;;;;9.32;4.63;;;;;;;;;;4991904;28;20169;-73
2021/01/28 09:04:33;;;;;;;5.70;3.95;;;;;;;;;;4996405;28;20046;-72
2021/01/28 09:06:59;;;;;;;5.03;3.75;;;;;;;;;;4983346;28;20054;-70
2021/01/28 09:09:30;;;;;;;4.30;3.42;;;;;;;;;;4999285;28;20109;-72
2021/01/28 09:12:23;;;;;;;5.47;3.72;;;;;;;;;;4996052;28;20113;-72
2021/01/28 09:14:49;;;;;;;7.28;3.60;;;;;;;;;;4996295;28;20050;-72
2021/01/28 09:17:22;;;;;;;6.55;3.85;;;;;;;;;;4995671;28;20042;-72
2021/01/28 09:19:52;;;;;;;;;;;;;;;;;;4996945;28;20054;-72
2021/01/28 09:22:35;;;;;;;7.30;4.35;;;;;;;;;;4997769;28;19956;-72
2021/01/28 09:25:07;;;;;;;5.85;3.88;;;;;;;;;;5000060;28;20057;-71
2021/01/28 09:27:35;;;;;;;6.63;3.80;;;;;;;;;;4988671;28;20046;-71
2021/01/28 09:30:18;;;;;;;5.47;3.90;;;;;;;;;;4996142;28;20049;-71
2021/01/28 09:32:45;;;;;;;5.53;3.20;;;;;;;;;;5003486;28;20050;-72
2021/01/28 09:35:16;;;;;;;6.35;3.78;;;;;;;;;;5010007;28;20144;-71
2021/01/28 09:37:45;;;;;;;4.22;3.13;;;;;;;;;;5011450;28;20398;-72
2021/01/28 09:40:21;;;;;;;7.18;3.58;;;;;;;;;;4994406;28;20398;-72
2021/01/28 09:42:47;;;;;;;4.63;3.05;;;;;;;;;;4990686;28;20062;-71
2021/01/28 09:45:24;;;;;;;4.25;2.75;;;;;;;;;;4992426;28;20457;-72
2021/01/28 09:47:54;;;;;;;4.55;2.72;;;;;;;;;;4994472;28;20054;-71
2021/01/28 09:50:21;;;;;;;3.22;2.65;;;;;;;;;;4991601;28;20120;-72
2021/01/28 09:52:49;;;;;;;3.35;2.30;;;;;;;;;;4998189;28;20153;-72
2021/01/28 09:55:19;;;;;;;4.40;2.53;;;;;;;;;;5013475;28;20574;-72
2021/01/28 09:57:45;;;;;;;3.17;1.90;;;;;;;;;;5015099;28;20061;-72
2021/01/28 10:00:14;;;;;;;5.00;2.60;;;;;;;;;;5003370;28;20104;-71
2021/01/28 10:02:46;;;;;;;6.53;2.95;;;;;;;;;;4994066;28;20077;-71
2021/01/28 10:05:15;;;;;;;5.05;3.10;;;;;;;;;;4978328;28;20141;-72
2021/01/28 10:07:42;;;;;;;8.85;4.13;;;;;;;;;;4995005;28;20108;-72
2021/01/28 10:10:09;;;;;;;4.47;3.45;;;;;;;;;;4995438;28;20053;-71
2021/01/28 10:12:36;;;;;;;8.02;4.55;;;;;;;;;;4993636;28;20529;-72
2021/01/28 10:15:03;;;;;;;8.77;4.32;;;;;;;;;;4993932;28;20104;-71
2021/01/28 10:17:30;;;;;;;16.30;7.82;;;;;;;;;;4994721;28;20124;-71
2021/01/28 10:19:57;;;;;;;9.90;4.07;;;;;;;;;;4995056;28;20050;-71
2021/01/28 10:22:23;;;;;;;17.35;7.47;;;;;;;;;;4988279;28;20047;-69
2021/01/28 10:24:49;;;;;;;7.78;3.90;;;;;;;;;;5004977;28;20054;-69
2021/01/28 10:27:16;;;;;;;5.57;3.08;;;;;;;;;;5001078;28;20070;-68
2021/01/28 10:29:43;;;;;;;6.55;4.15;;;;;;;;;;4988857;28;20060;-70
2021/01/28 10:32:12;;;;;;;3.78;2.35;;;;;;;;;;4997034;28;20056;-71
2021/01/28 10:34:39;;;;;;;3.03;2.25;;;;;;;;;;5001114;28;20099;-70
2021/01/28 10:37:05;;;;;;;2.47;1.75;;;;;;;;;;4999969;28;20120;-71
2021/01/28 10:39:31;;;;;;;5.00;3.50;;;;;;;;;;5001429;28;20561;-71
2021/01/28 10:41:58;;;;;;;3.60;2.05;;;;;;;;;;5006201;28;20132;-71
2021/01/28 10:44:24;;;;;;;3.20;1.90;;;;;;;;;;5000786;28;20058;-68
2021/01/28 10:46:51;;;;;;;2.92;1.80;;;;;;;;;;5001439;28;20109;-71
2021/01/28 10:49:17;;;;;;;2.30;1.38;;;;;;;;;;4998827;28;20061;-70
2021/01/28 10:51:44;;;;;;;2.25;1.52;;;;;;;;;;4996104;28;20062;-73
2021/01/28 10:54:10;;;;;;;2.78;1.40;;;;;;;;;;4984262;28;20141;-70
2021/01/28 10:56:36;;;;;;;2.35;1.40;;;;;;;;;;5002060;28;20516;-69
2021/01/28 10:59:06;;;;;;;3.97;1.80;;;;;;;;;;4999251;28;20081;-73
2021/01/28 11:01:33;;;;;;;4.07;1.45;;;;;;;;;;4984261;28;20038;-72
2021/01/28 11:04:03;;;;;;;3.22;1.20;;;;;;;;;;4985540;28;20057;-70
2021/01/28 11:06:30;;;;;;;1.10;1.00;;;;;;;;;;4999983;28;20053;-69
2021/01/28 11:08:56;;;;;;;3.65;2.00;;;;;;;;;;4998768;28;20566;-70
2021/01/28 11:11:22;;;;;;;1.45;1.13;;;;;;;;;;4998285;28;20100;-69
2021/01/28 11:13:52;;;;;;;1.75;0.95;;;;;;;;;;4999276;28;20049;-69
2021/01/28 11:16:23;;;;;;;1.38;1.13;;;;;;;;;;4997186;28;20575;-69
2021/01/28 11:18:51;;;;;;;1.27;1.17;;;;;;;;;;4999194;28;20058;-68
2021/01/28 11:21:18;;;;;;;1.60;1.42;;;;;;;;;;4999852;28;20050;-68
2021/01/28 11:23:44;;;;;;;2.60;1.73;;;;;;;;;;4999208;28;20100;-68
2021/01/28 11:26:10;;;;;;;2.88;2.08;;;;;;;;;;4997549;28;20050;-67
2021/01/28 11:28:37;;;;;;;2.05;1.30;;;;;;;;;;4995938;28;20057;-67
2021/01/28 11:31:04;;;;;;;3.85;1.98;;;;;;;;;;4997658;28;20413;-69
2021/01/28 11:33:34;;;;;;;5.47;2.30;;;;;;;;;;5000372;28;20050;-68
2021/01/28 11:36:01;;;;;;;3.92;1.90;;;;;;;;;;4998194;28;20112;-69
2021/01/28 11:38:27;;;;;;;3.25;2.10;;;;;;;;;;5000869;28;20504;-68
2021/01/28 11:40:54;;;;;;;1.33;1.08;;;;;;;;;;4999075;28;20583;-68
2021/01/28 11:43:20;;;;;;;3.30;1.90;;;;;;;;;;5009266;28;20045;-69
2021/01/28 11:45:46;;;;;;;1.00;0.93;;;;;;;;;;5007104;28;20097;-69
2021/01/28 11:48:12;;;;;;;1.70;1.15;;;;;;;;;;5002129;28;20100;-69
2021/01/28 11:50:38;;;;;;;1.95;1.05;;;;;;;;;;4990667;28;20513;-69
2021/01/28 11:53:04;;;;;;;4.35;1.77;;;;;;;;;;4991212;28;20157;-69
2021/01/28 11:55:31;;;;;;;1.85;1.25;;;;;;;;;;4989112;28;20062;-69
2021/01/28 11:57:58;;;;;;;2.10;1.35;;;;;;;;;;4991049;28;20152;-68
2021/01/28 12:00:26;;;;;;;2.50;1.58;;;;;;;;;;4996249;28;20042;-68
2021/01/28 12:02:52;;;;;;;1.20;0.90;;;;;;;;;;5010694;28;20041;-68
2021/01/28 12:05:20;;;;;;;1.48;0.60;;;;;;;;;;5006553;28;20137;-68
2021/01/28 12:07:48;;;;;;;2.50;0.60;;;;;;;;;;4990315;28;20054;-68
2021/01/28 12:10:16;;;;;;;0.63;0.63;;;;;;;;;;4990831;28;20050;-68
2021/01/28 12:12:45;;;;;;;0.63;0.63;;;;;;;;;;4990785;28;20266;-67
2021/01/28 12:15:11;;;;;;;0.98;0.65;;;;;;;;;;4989115;28;20055;-67
2021/01/28 12:17:37;;;;;;;1.95;0.77;;;;;;;;;;4990524;28;20054;-67
2021/01/28 12:20:06;;;;;;;1.13;0.73;;;;;;;;;;4991088;28;20050;-67
2021/01/28 12:22:32;;;;;;;0.88;0.57;;;;;;;;;;4989202;28;20469;-68
2021/01/28 12:24:58;;;;;;;2.05;0.70;;;;;;;;;;5003054;28;20081;-67
2021/01/28 12:27:24;;;;;;;2.22;0.90;;;;;;;;;;5009809;28;20061;-67
2021/01/28 12:29:50;;;;;;;1.52;0.85;;;;;;;;;;4996216;28;20054;-70
2021/01/28 12:32:17;;;;;;;2.95;0.98;;;;;;;;;;4998742;28;20038;-71
2021/01/28 12:34:43;;;;;;;1.27;1.00;;;;;;;;;;4996012;28;20132;-70
2021/01/28 12:37:10;;;;;;;2.20;0.93;;;;;;;;;;4997189;28;20517;-67
2021/01/28 12:39:40;;;;;;;1.75;0.70;;;;;;;;;;4994647;28;20190;-68
2021/01/28 12:42:06;;;;;;;2.72;1.08;;;;;;;;;;4997153;28;20049;-68
2021/01/28 12:44:32;;;;;;;1.15;0.85;;;;;;;;;;4994781;28;20502;-68
2021/01/28 12:46:58;;;;;;;2.40;1.05;;;;;;;;;;4996208;28;20123;-68
2021/01/28 12:49:25;;;;;;;1.73;0.73;;;;;;;;;;4997273;28;20058;-69
2021/01/28 12:51:53;;;;;;;2.10;1.23;;;;;;;;;;5005755;28;20050;-68
2021/01/28 12:54:22;;;;;;;5.07;0.90;;;;;;;;;;4997074;28;20494;-69
2021/01/28 12:56:48;;;;;;;3.35;1.60;;;;;;;;;;4994946;28;20081;-69
2021/01/28 12:59:15;;;;;;;1.40;1.00;;;;;;;;;;4998713;28;20050;-71
2021/01/28 13:01:41;;;;;;;1.08;0.88;;;;;;;;;;4993747;28;20100;-67
2021/01/28 13:04:07;;;;;;;3.15;1.50;;;;;;;;;;4996582;28;20052;-68
2021/01/28 13:06:34;;;;;;;4.80;2.40;;;;;;;;;;4998966;28;20071;-70
2021/01/28 13:09:00;;;;;;;5.10;2.35;;;;;;;;;;5009553;28;20437;-68
2021/01/28 13:11:26;;;;;;;4.78;2.22;;;;;;;;;;4991257;28;20086;-70
2021/01/28 13:13:53;;;;;;;5.15;1.85;;;;;;;;;;4988142;28;20555;-70
2021/01/28 13:16:19;;;;;;;4.35;1.77;;;;;;;;;;4988644;28;20050;-70
2021/01/28 13:18:45;;;;;;;4.03;1.85;;;;;;;;;;5001733;28;20231;-70
2021/01/28 13:21:12;;;;;;;9.50;3.97;;;;;;;;;;5014080;28;20092;-69
2021/01/28 13:23:38;;;;;;;2.67;1.52;;;;;;;;;;5014659;28;20129;-71
2021/01/28 13:26:06;;;;;;;1.50;1.40;;;;;;;;;;4999837;28;20117;-70
2021/01/28 13:28:33;;;;;;;1.77;1.17;;;;;;;;;;5006648;28;20050;-70
2021/01/28 13:30:59;;;;;;;2.50;1.00;;;;;;;;;;5003064;28;20054;-71
2021/01/28 13:33:25;;;;;;;2.03;1.65;;;;;;;;;;4999229;28;20055;-68
2021/01/28 13:35:51;;;;;;;1.33;0.90;;;;;;;;;;5003039;28;20054;-69
2021/01/28 13:38:18;;;;;;;3.95;2.30;;;;;;;;;;4998705;28;20493;-70
2021/01/28 13:40:45;;;;;;;3.08;1.95;;;;;;;;;;4985955;28;20050;-69
2021/01/28 13:43:12;;;;;;;5.35;2.90;;;;;;;;;;4998760;28;20133;-70
2021/01/28 13:45:38;;;;;;;3.90;2.40;;;;;;;;;;4999912;28;20064;-69
2021/01/28 13:48:06;;;;;;;3.28;1.70;;;;;;;;;;4998170;28;20081;-70
2021/01/28 13:50:36;;;;;;;2.80;1.70;;;;;;;;;;5000426;28;20073;-69
2021/01/28 13:53:04;;;;;;;1.23;1.02;;;;;;;;;;4981801;28;20050;-69
2021/01/28 13:55:31;;;;;;;2.33;1.40;;;;;;;;;;5001786;28;20140;-71
2021/01/28 13:57:58;;;;;;;5.38;3.33;;;;;;;;;;4999765;28;20050;-70
2021/01/28 14:00:26;;;;;;;1.13;1.02;;;;;;;;;;4998683;28;20096;-71
2021/01/28 14:02:55;;;;;;;2.33;0.95;;;;;;;;;;4998253;28;20117;-70
2021/01/28 14:05:25;;;;;;;0.60;0.60;;;;;;;;;;4997399;28;20137;-71
2021/01/28 14:07:53;;;;;;;1.40;0.82;;;;;;;;;;4995620;28;20053;-71
2021/01/28 14:10:30;;;;;;;1.40;1.00;;;;;;;;;;4998207;28;20477;-69
2021/01/28 14:12:57;;;;;;;0.95;0.90;;;;;;;;;;5001277;28;20093;-70
2021/01/28 14:15:25;;;;;;;1.00;0.95;;;;;;;;;;4998454;28;20064;-70
2021/01/28 14:17:54;;;;;;;0.88;0.65;;;;;;;;;;4997802;28;20058;-71
2021/01/28 14:20:22;;;;;;;0.60;0.60;;;;;;;;;;5008595;28;20108;-70
2021/01/28 14:22:51;;;;;;;2.70;1.10;;;;;;;;;;4997805;28;20508;-71
2021/01/28 14:25:20;;;;;;;1.15;0.80;;;;;;;;;;4998908;28;20046;-69
2021/01/28 14:27:47;;;;;;;0.95;0.80;;;;;;;;;;4996193;28;20057;-71
2021/01/28 14:30:14;;;;;;;0.77;0.65;;;;;;;;;;4999218;28;20077;-69
2021/01/28 14:32:40;;;;;;;0.43;0.43;;;;;;;;;;4997270;28;20050;-71
2021/01/28 14:35:07;;;;;;;0.57;0.57;;;;;;;;;;4998899;28;20050;-75
2021/01/28 14:37:33;;;;;;;2.47;0.60;;;;;;;;;;4999423;28;20053;-73
2021/01/28 14:39:59;;;;;;;0.77;0.40;;;;;;;;;;4998438;28;20054;-72
2021/01/28 14:42:26;;;;;;;0.17;0.13;;;;;;;;;;4999136;28;20050;-73
2021/01/28 14:44:52;;;;;;;1.27;0.20;;;;;;;;;;4997069;28;20136;-71
2021/01/28 14:47:18;;;;;;;0.32;0.13;;;;;;;;;;4997270;28;20108;-73
2021/01/28 14:49:44;;;;;;;0.20;0.20;;;;;;;;;;4992680;28;20083;-74
2021/01/28 14:52:11;;;;;;;0.68;0.50;;;;;;;;;;4998467;28;20505;-75
2021/01/28 14:54:40;;;;;;;0.43;0.30;;;;;;;;;;4984680;28;20046;-70
2021/01/28 14:57:07;;;;;;;1.10;0.60;;;;;;;;;;4998947;28;20416;-70
2021/01/28 14:59:35;;;;;;;3.47;1.48;;;;;;;;;;5004254;28;20046;-72
2021/01/28 15:02:01;;;;;;;0.40;0.40;;;;;;;;;;4997876;28;20606;-74